Sea Island, GA

1:10 AM EDT on September 05, 2015 (GMT -0400)
McKinnon | | Change Station
CLOSE
Current Station
Airport
Location: Saint Simons Island,
Elevation: 20 ft
Nearby Weather Stations

Elev 20 ft 31.15 °N, 81.39 °W | Updated 17 minutes ago

Partly Cloudy
Partly Cloudy
77 °F
Feels Like 77 °F
N
4
Wind Variable Wind from NNE

Today
High -- | Low -- °F
--% Chance of Precip.
Yesterday
High -- | Low -- °F
Precip. -- in
7:03 AM 7:44 PM
Waning Gibbous, 52% visible
Pressure 29.99 in
Visibility 10.0 miles
Clouds Clear
Dew Point 72 °F
Humidity 84%
Rainfall 0.00 in
Snow Depth Not available.
UV 0 out of 12
Pollen 8.40 out of 12
Air Quality Not available.
Flu Activity Not available.
METAR KSSI 050453Z AUTO 02003KT 10SM CLR 25/22 A2998 RMK AO2 LTG DSNT NE AND SE SLP153 T02500222 403170239
Pressure 29.99 in
Visibility 10.0 miles
Clouds Clear
Dew Point 72 °F
Humidity 84%
Rainfall 0.00 in
Snow Depth Not available.
UV 0 out of 12
Pollen 8.40 out of 12
Air Quality Not available.
Flu Activity Not available.
METAR KSSI 050453Z AUTO 02003KT 10SM CLR 25/22 A2998 RMK AO2 LTG DSNT NE AND SE SLP153 T02500222 403170239

10-Day Weather Forecast

×

Almanac

Astronomy

Sep. 05, 2015 Rise Set
Actual Time
Civil Twilight
Nautical Twilight
Astronomical Twilight
Moon
Length of Visible Light
Length of Day
Tomorrow will be .
, % of the Moon is Illuminated

Today's Extremes

State Highs State Lows

Community

WunderPhotos

Upload Photos

1,852,426 photos uploaded!

WunderBlogs® & News

Nearby

Air Quality

  Air Quality AQ Index Pollutant
Not available.

Snow Depth

Station Depth Elevation

Earthquake Activity

City Distance Mag. Time & Date
Minimum magnitude displayed is 2.5.

Coastal Water Temperatures

Place Temperature

Stations

Nearby Weather Stations

Station Location Temp. Windchill Dew Point Humidity Wind Precip. Elev Updated Type